sensor_id;sensor_type;location;lat;lon;timestamp;P1;durP1;ratioP1;P2;durP2;ratioP2
74080;SDS011;62438;52.228;6.864;2022-11-18T00:01:10;9.70;;;3.80;;
74080;SDS011;62438;52.228;6.864;2022-11-18T00:05:18;10.13;;;3.88;;
74080;SDS011;62438;52.228;6.864;2022-11-18T00:07:19;12.25;;;3.90;;
74080;SDS011;62438;52.228;6.864;2022-11-18T00:09:19;13.85;;;4.25;;
74080;SDS011;62438;52.228;6.864;2022-11-18T00:11:23;15.57;;;4.05;;
74080;SDS011;62438;52.228;6.864;2022-11-18T00:13:43;11.65;;;4.15;;
74080;SDS011;62438;52.228;6.864;2022-11-18T00:16:03;12.38;;;4.13;;
74080;SDS011;62438;52.228;6.864;2022-11-18T00:18:05;11.68;;;3.72;;
74080;SDS011;62438;52.228;6.864;2022-11-18T00:20:05;12.10;;;3.72;;
74080;SDS011;62438;52.228;6.864;2022-11-18T00:22:06;13.77;;;4.35;;
74080;SDS011;62438;52.228;6.864;2022-11-18T00:24:10;11.48;;;4.22;;
74080;SDS011;62438;52.228;6.864;2022-11-18T00:26:11;10.52;;;3.80;;
74080;SDS011;62438;52.228;6.864;2022-11-18T00:28:13;9.88;;;4.05;;
74080;SDS011;62438;52.228;6.864;2022-11-18T00:30:13;10.45;;;3.75;;
74080;SDS011;62438;52.228;6.864;2022-11-18T00:32:13;11.75;;;4.10;;
74080;SDS011;62438;52.228;6.864;2022-11-18T00:34:15;9.63;;;4.05;;
74080;SDS011;62438;52.228;6.864;2022-11-18T00:36:17;9.65;;;3.95;;
74080;SDS011;62438;52.228;6.864;2022-11-18T00:38:17;11.05;;;3.70;;
74080;SDS011;62438;52.228;6.864;2022-11-18T00:40:17;8.95;;;4.45;;
74080;SDS011;62438;52.228;6.864;2022-11-18T00:42:18;12.43;;;4.47;;
74080;SDS011;62438;52.228;6.864;2022-11-18T00:44:37;15.15;;;4.10;;
74080;SDS011;62438;52.228;6.864;2022-11-18T00:46:37;10.07;;;3.70;;
74080;SDS011;62438;52.228;6.864;2022-11-18T00:48:38;10.25;;;4.47;;
74080;SDS011;62438;52.228;6.864;2022-11-18T00:50:39;12.18;;;3.85;;
74080;SDS011;62438;52.228;6.864;2022-11-18T00:52:39;9.63;;;4.05;;
74080;SDS011;62438;52.228;6.864;2022-11-18T00:54:40;11.43;;;4.00;;
74080;SDS011;62438;52.228;6.864;2022-11-18T00:56:40;9.45;;;3.72;;
74080;SDS011;62438;52.228;6.864;2022-11-18T00:58:40;13.30;;;4.57;;
74080;SDS011;62438;52.228;6.864;2022-11-18T01:00:42;12.00;;;3.83;;
74080;SDS011;62438;52.228;6.864;2022-11-18T01:02:43;12.77;;;4.20;;
74080;SDS011;62438;52.228;6.864;2022-11-18T01:04:43;12.85;;;3.83;;
74080;SDS011;62438;52.228;6.864;2022-11-18T01:06:44;12.57;;;3.72;;
74080;SDS011;62438;52.228;6.864;2022-11-18T01:08:44;10.25;;;3.90;;
74080;SDS011;62438;52.228;6.864;2022-11-18T01:10:45;13.30;;;4.68;;
74080;SDS011;62438;52.228;6.864;2022-11-18T01:12:47;12.40;;;4.13;;
74080;SDS011;62438;52.228;6.864;2022-11-18T01:15:06;11.73;;;3.53;;
74080;SDS011;62438;52.228;6.864;2022-11-18T01:17:07;10.02;;;3.72;;
74080;SDS011;62438;52.228;6.864;2022-11-18T01:19:07;9.60;;;3.90;;
74080;SDS011;62438;52.228;6.864;2022-11-18T01:21:07;10.25;;;4.00;;
74080;SDS011;62438;52.228;6.864;2022-11-18T01:23:08;10.45;;;3.80;;
74080;SDS011;62438;52.228;6.864;2022-11-18T01:25:08;8.25;;;3.45;;
74080;SDS011;62438;52.228;6.864;2022-11-18T01:27:09;13.57;;;3.72;;
74080;SDS011;62438;52.228;6.864;2022-11-18T01:29:09;7.78;;;3.30;;
74080;SDS011;62438;52.228;6.864;2022-11-18T01:31:13;10.32;;;3.65;;
74080;SDS011;62438;52.228;6.864;2022-11-18T01:33:16;11.95;;;3.80;;
74080;SDS011;62438;52.228;6.864;2022-11-18T01:35:16;10.45;;;3.70;;
74080;SDS011;62438;52.228;6.864;2022-11-18T01:37:17;12.05;;;3.88;;
74080;SDS011;62438;52.228;6.864;2022-11-18T01:39:17;11.45;;;3.83;;
74080;SDS011;62438;52.228;6.864;2022-11-18T01:41:18;11.23;;;3.72;;
74080;SDS011;62438;52.228;6.864;2022-11-18T01:43:21;7.72;;;3.03;;
74080;SDS011;62438;52.228;6.864;2022-11-18T01:45:32;13.35;;;3.80;;
74080;SDS011;62438;52.228;6.864;2022-11-18T01:47:38;11.70;;;4.75;;
74080;SDS011;62438;52.228;6.864;2022-11-18T01:49:46;10.00;;;4.00;;
74080;SDS011;62438;52.228;6.864;2022-11-18T01:51:48;14.18;;;4.35;;
74080;SDS011;62438;52.228;6.864;2022-11-18T01:53:56;10.63;;;4.40;;
74080;SDS011;62438;52.228;6.864;2022-11-18T01:56:06;10.13;;;3.72;;
74080;SDS011;62438;52.228;6.864;2022-11-18T01:58:12;12.20;;;4.25;;
74080;SDS011;62438;52.228;6.864;2022-11-18T02:00:24;10.65;;;4.28;;
74080;SDS011;62438;52.228;6.864;2022-11-18T02:02:25;10.57;;;4.20;;
74080;SDS011;62438;52.228;6.864;2022-11-18T02:04:26;12.63;;;5.18;;
74080;SDS011;62438;52.228;6.864;2022-11-18T02:06:26;10.00;;;4.10;;
74080;SDS011;62438;52.228;6.864;2022-11-18T02:08:28;10.13;;;3.50;;
74080;SDS011;62438;52.228;6.864;2022-11-18T02:10:29;9.70;;;3.72;;
74080;SDS011;62438;52.228;6.864;2022-11-18T02:12:30;11.65;;;3.80;;
74080;SDS011;62438;52.228;6.864;2022-11-18T02:14:34;13.65;;;4.47;;
74080;SDS011;62438;52.228;6.864;2022-11-18T02:20:59;10.45;;;3.85;;
74080;SDS011;62438;52.228;6.864;2022-11-18T02:30:22;8.25;;;3.70;;
74080;SDS011;62438;52.228;6.864;2022-11-18T02:32:28;9.40;;;3.95;;
74080;SDS011;62438;52.228;6.864;2022-11-18T02:34:39;11.57;;;4.80;;
74080;SDS011;62438;52.228;6.864;2022-11-18T02:39:24;10.85;;;4.82;;
74080;SDS011;62438;52.228;6.864;2022-11-18T02:41:33;11.60;;;4.72;;
74080;SDS011;62438;52.228;6.864;2022-11-18T02:43:37;13.98;;;5.35;;
74080;SDS011;62438;52.228;6.864;2022-11-18T02:45:43;11.13;;;4.72;;
74080;SDS011;62438;52.228;6.864;2022-11-18T02:47:47;10.90;;;4.63;;
74080;SDS011;62438;52.228;6.864;2022-11-18T02:49:51;12.65;;;4.70;;
74080;SDS011;62438;52.228;6.864;2022-11-18T02:51:55;13.05;;;4.90;;
74080;SDS011;62438;52.228;6.864;2022-11-18T02:54:01;12.63;;;4.93;;
74080;SDS011;62438;52.228;6.864;2022-11-18T02:56:05;10.75;;;4.80;;
74080;SDS011;62438;52.228;6.864;2022-11-18T02:58:07;13.85;;;5.03;;
74080;SDS011;62438;52.228;6.864;2022-11-18T03:00:08;11.18;;;5.28;;
74080;SDS011;62438;52.228;6.864;2022-11-18T03:02:13;13.50;;;4.97;;
74080;SDS011;62438;52.228;6.864;2022-11-18T03:04:15;12.63;;;5.45;;
74080;SDS011;62438;52.228;6.864;2022-11-18T03:06:30;8.77;;;4.20;;
74080;SDS011;62438;52.228;6.864;2022-11-18T03:08:43;12.10;;;4.35;;
74080;SDS011;62438;52.228;6.864;2022-11-18T03:10:50;9.38;;;4.40;;
74080;SDS011;62438;52.228;6.864;2022-11-18T03:13:05;13.20;;;4.70;;
74080;SDS011;62438;52.228;6.864;2022-11-18T03:15:30;15.07;;;5.82;;
74080;SDS011;62438;52.228;6.864;2022-11-18T03:22:41;11.48;;;5.28;;
74080;SDS011;62438;52.228;6.864;2022-11-18T03:25:08;12.65;;;5.03;;
74080;SDS011;62438;52.228;6.864;2022-11-18T03:27:17;12.15;;;5.22;;
74080;SDS011;62438;52.228;6.864;2022-11-18T03:29:24;14.27;;;5.60;;
74080;SDS011;62438;52.228;6.864;2022-11-18T03:33:36;11.88;;;5.82;;
74080;SDS011;62438;52.228;6.864;2022-11-18T03:35:42;11.57;;;5.50;;
74080;SDS011;62438;52.228;6.864;2022-11-18T03:37:45;13.55;;;6.05;;
74080;SDS011;62438;52.228;6.864;2022-11-18T03:39:51;14.13;;;5.82;;
74080;SDS011;62438;52.228;6.864;2022-11-18T03:41:54;12.88;;;5.93;;
74080;SDS011;62438;52.228;6.864;2022-11-18T03:44:04;16.17;;;6.43;;
74080;SDS011;62438;52.228;6.864;2022-11-18T03:46:11;13.98;;;6.10;;
74080;SDS011;62438;52.228;6.864;2022-11-18T03:48:16;14.93;;;6.65;;
74080;SDS011;62438;52.228;6.864;2022-11-18T03:50:23;12.20;;;6.40;;
74080;SDS011;62438;52.228;6.864;2022-11-18T03:52:29;13.02;;;6.53;;
74080;SDS011;62438;52.228;6.864;2022-11-18T03:54:32;20.85;;;6.95;;
74080;SDS011;62438;52.228;6.864;2022-11-18T03:56:38;17.05;;;7.05;;
74080;SDS011;62438;52.228;6.864;2022-11-18T04:01:00;14.55;;;6.82;;
74080;SDS011;62438;52.228;6.864;2022-11-18T04:03:07;17.52;;;6.55;;
74080;SDS011;62438;52.228;6.864;2022-11-18T04:05:09;14.32;;;7.22;;
74080;SDS011;62438;52.228;6.864;2022-11-18T04:07:17;14.77;;;7.18;;
74080;SDS011;62438;52.228;6.864;2022-11-18T04:09:44;18.85;;;7.35;;
74080;SDS011;62438;52.228;6.864;2022-11-18T04:11:58;12.20;;;6.70;;
74080;SDS011;62438;52.228;6.864;2022-11-18T04:14:05;14.10;;;7.53;;
74080;SDS011;62438;52.228;6.864;2022-11-18T04:16:07;13.60;;;6.95;;
74080;SDS011;62438;52.228;6.864;2022-11-18T04:18:09;14.82;;;6.78;;
74080;SDS011;62438;52.228;6.864;2022-11-18T04:20:16;17.05;;;7.47;;
74080;SDS011;62438;52.228;6.864;2022-11-18T04:22:19;13.60;;;7.35;;
74080;SDS011;62438;52.228;6.864;2022-11-18T04:24:20;15.40;;;7.32;;
74080;SDS011;62438;52.228;6.864;2022-11-18T04:26:20;12.15;;;7.05;;
74080;SDS011;62438;52.228;6.864;2022-11-18T04:28:21;15.70;;;7.68;;
74080;SDS011;62438;52.228;6.864;2022-11-18T04:30:21;14.15;;;7.10;;
74080;SDS011;62438;52.228;6.864;2022-11-18T04:32:21;12.93;;;7.70;;
74080;SDS011;62438;52.228;6.864;2022-11-18T04:34:22;14.70;;;7.80;;
74080;SDS011;62438;52.228;6.864;2022-11-18T04:36:22;15.18;;;8.50;;
74080;SDS011;62438;52.228;6.864;2022-11-18T04:38:22;17.20;;;7.63;;
74080;SDS011;62438;52.228;6.864;2022-11-18T04:40:23;15.85;;;8.30;;
74080;SDS011;62438;52.228;6.864;2022-11-18T04:42:23;13.57;;;7.75;;
74080;SDS011;62438;52.228;6.864;2022-11-18T04:44:27;17.13;;;7.88;;
74080;SDS011;62438;52.228;6.864;2022-11-18T04:46:29;13.63;;;7.88;;
74080;SDS011;62438;52.228;6.864;2022-11-18T04:48:30;17.05;;;8.13;;
74080;SDS011;62438;52.228;6.864;2022-11-18T04:50:30;16.10;;;7.40;;
74080;SDS011;62438;52.228;6.864;2022-11-18T04:52:30;19.05;;;9.07;;
74080;SDS011;62438;52.228;6.864;2022-11-18T04:54:31;17.10;;;7.70;;
74080;SDS011;62438;52.228;6.864;2022-11-18T04:56:31;16.67;;;8.20;;
74080;SDS011;62438;52.228;6.864;2022-11-18T04:58:32;17.30;;;8.50;;
74080;SDS011;62438;52.228;6.864;2022-11-18T05:00:32;16.50;;;8.85;;
74080;SDS011;62438;52.228;6.864;2022-11-18T05:02:33;16.15;;;8.63;;
74080;SDS011;62438;52.228;6.864;2022-11-18T05:04:33;18.42;;;9.07;;
74080;SDS011;62438;52.228;6.864;2022-11-18T05:06:34;17.10;;;8.90;;
74080;SDS011;62438;52.228;6.864;2022-11-18T05:08:34;18.23;;;8.75;;
74080;SDS011;62438;52.228;6.864;2022-11-18T05:10:34;22.05;;;9.05;;
74080;SDS011;62438;52.228;6.864;2022-11-18T05:12:37;17.98;;;9.43;;
74080;SDS011;62438;52.228;6.864;2022-11-18T05:14:50;15.45;;;8.95;;
74080;SDS011;62438;52.228;6.864;2022-11-18T05:16:50;18.42;;;9.70;;
74080;SDS011;62438;52.228;6.864;2022-11-18T05:18:50;20.27;;;9.60;;
74080;SDS011;62438;52.228;6.864;2022-11-18T05:20:51;21.90;;;9.60;;
74080;SDS011;62438;52.228;6.864;2022-11-18T05:22:51;24.27;;;10.50;;
74080;SDS011;62438;52.228;6.864;2022-11-18T05:24:51;19.83;;;9.60;;
74080;SDS011;62438;52.228;6.864;2022-11-18T05:26:52;16.63;;;9.63;;
74080;SDS011;62438;52.228;6.864;2022-11-18T05:28:53;17.58;;;9.55;;
74080;SDS011;62438;52.228;6.864;2022-11-18T05:30:54;19.55;;;9.38;;
74080;SDS011;62438;52.228;6.864;2022-11-18T05:32:54;16.75;;;8.68;;
74080;SDS011;62438;52.228;6.864;2022-11-18T05:34:55;17.85;;;9.65;;
74080;SDS011;62438;52.228;6.864;2022-11-18T05:36:55;20.05;;;10.75;;
74080;SDS011;62438;52.228;6.864;2022-11-18T05:38:58;18.42;;;9.70;;
74080;SDS011;62438;52.228;6.864;2022-11-18T05:40:59;19.10;;;9.65;;
74080;SDS011;62438;52.228;6.864;2022-11-18T05:43:00;19.00;;;9.98;;
74080;SDS011;62438;52.228;6.864;2022-11-18T05:45:10;18.58;;;9.00;;
74080;SDS011;62438;52.228;6.864;2022-11-18T05:47:10;19.48;;;9.15;;
74080;SDS011;62438;52.228;6.864;2022-11-18T05:49:10;18.52;;;8.95;;
74080;SDS011;62438;52.228;6.864;2022-11-18T05:51:11;16.48;;;8.57;;
74080;SDS011;62438;52.228;6.864;2022-11-18T05:53:11;17.25;;;9.00;;
74080;SDS011;62438;52.228;6.864;2022-11-18T05:55:12;18.70;;;9.05;;
74080;SDS011;62438;52.228;6.864;2022-11-18T05:57:14;16.25;;;9.10;;
74080;SDS011;62438;52.228;6.864;2022-11-18T05:59:14;17.33;;;9.02;;
74080;SDS011;62438;52.228;6.864;2022-11-18T06:01:17;17.63;;;10.35;;
74080;SDS011;62438;52.228;6.864;2022-11-18T06:03:22;21.27;;;9.02;;
74080;SDS011;62438;52.228;6.864;2022-11-18T06:05:26;18.70;;;8.75;;
74080;SDS011;62438;52.228;6.864;2022-11-18T06:07:37;22.10;;;10.77;;
74080;SDS011;62438;52.228;6.864;2022-11-18T06:09:44;17.35;;;8.65;;
74080;SDS011;62438;52.228;6.864;2022-11-18T06:11:49;19.25;;;8.95;;
74080;SDS011;62438;52.228;6.864;2022-11-18T06:13:54;20.63;;;9.40;;
74080;SDS011;62438;52.228;6.864;2022-11-18T06:16:00;15.95;;;8.80;;
74080;SDS011;62438;52.228;6.864;2022-11-18T06:18:02;19.70;;;9.57;;
74080;SDS011;62438;52.228;6.864;2022-11-18T06:20:07;19.65;;;8.98;;
74080;SDS011;62438;52.228;6.864;2022-11-18T06:22:08;16.48;;;9.60;;
74080;SDS011;62438;52.228;6.864;2022-11-18T06:24:09;18.38;;;9.90;;
74080;SDS011;62438;52.228;6.864;2022-11-18T06:26:11;19.27;;;9.50;;
74080;SDS011;62438;52.228;6.864;2022-11-18T06:28:14;20.77;;;10.05;;
74080;SDS011;62438;52.228;6.864;2022-11-18T06:30:15;21.23;;;9.52;;
74080;SDS011;62438;52.228;6.864;2022-11-18T06:32:16;22.98;;;9.68;;
74080;SDS011;62438;52.228;6.864;2022-11-18T06:34:17;19.25;;;9.48;;
74080;SDS011;62438;52.228;6.864;2022-11-18T06:36:17;16.20;;;8.90;;
74080;SDS011;62438;52.228;6.864;2022-11-18T06:38:18;20.65;;;9.40;;
74080;SDS011;62438;52.228;6.864;2022-11-18T06:40:18;18.13;;;9.68;;
74080;SDS011;62438;52.228;6.864;2022-11-18T06:42:19;15.77;;;8.75;;
74080;SDS011;62438;52.228;6.864;2022-11-18T06:44:38;16.35;;;8.98;;
74080;SDS011;62438;52.228;6.864;2022-11-18T06:46:38;18.25;;;9.32;;
74080;SDS011;62438;52.228;6.864;2022-11-18T06:48:56;23.25;;;9.10;;
74080;SDS011;62438;52.228;6.864;2022-11-18T06:50:57;20.20;;;9.98;;
74080;SDS011;62438;52.228;6.864;2022-11-18T06:53:00;22.17;;;9.77;;
74080;SDS011;62438;52.228;6.864;2022-11-18T06:55:01;19.65;;;9.88;;
74080;SDS011;62438;52.228;6.864;2022-11-18T06:57:01;17.80;;;9.30;;
74080;SDS011;62438;52.228;6.864;2022-11-18T06:59:01;21.23;;;9.60;;
74080;SDS011;62438;52.228;6.864;2022-11-18T07:01:13;23.05;;;10.45;;
74080;SDS011;62438;52.228;6.864;2022-11-18T07:03:17;21.75;;;11.00;;
74080;SDS011;62438;52.228;6.864;2022-11-18T07:05:18;25.38;;;10.77;;
74080;SDS011;62438;52.228;6.864;2022-11-18T07:07:18;20.73;;;10.90;;
74080;SDS011;62438;52.228;6.864;2022-11-18T07:09:19;19.83;;;10.48;;
74080;SDS011;62438;52.228;6.864;2022-11-18T07:11:20;21.00;;;10.63;;
74080;SDS011;62438;52.228;6.864;2022-11-18T07:13:25;22.05;;;10.85;;
74080;SDS011;62438;52.228;6.864;2022-11-18T07:15:26;23.08;;;10.75;;
74080;SDS011;62438;52.228;6.864;2022-11-18T07:17:28;25.35;;;10.75;;
74080;SDS011;62438;52.228;6.864;2022-11-18T07:19:29;20.95;;;9.88;;
74080;SDS011;62438;52.228;6.864;2022-11-18T07:21:29;23.33;;;10.63;;
74080;SDS011;62438;52.228;6.864;2022-11-18T07:23:30;23.15;;;11.23;;
74080;SDS011;62438;52.228;6.864;2022-11-18T07:25:32;22.65;;;10.65;;
74080;SDS011;62438;52.228;6.864;2022-11-18T07:27:32;23.48;;;11.23;;
74080;SDS011;62438;52.228;6.864;2022-11-18T07:29:33;23.25;;;10.70;;
74080;SDS011;62438;52.228;6.864;2022-11-18T07:31:34;26.15;;;11.23;;
74080;SDS011;62438;52.228;6.864;2022-11-18T07:33:38;25.58;;;11.65;;
74080;SDS011;62438;52.228;6.864;2022-11-18T07:35:39;27.65;;;11.95;;
74080;SDS011;62438;52.228;6.864;2022-11-18T07:37:40;26.38;;;11.95;;
74080;SDS011;62438;52.228;6.864;2022-11-18T07:39:40;24.63;;;11.35;;
74080;SDS011;62438;52.228;6.864;2022-11-18T07:41:40;25.95;;;12.25;;
74080;SDS011;62438;52.228;6.864;2022-11-18T07:43:41;25.52;;;11.63;;
74080;SDS011;62438;52.228;6.864;2022-11-18T07:45:41;25.10;;;10.77;;
74080;SDS011;62438;52.228;6.864;2022-11-18T07:47:42;24.45;;;11.32;;
74080;SDS011;62438;52.228;6.864;2022-11-18T07:49:42;25.90;;;12.63;;
74080;SDS011;62438;52.228;6.864;2022-11-18T07:51:43;22.67;;;11.05;;
74080;SDS011;62438;52.228;6.864;2022-11-18T07:53:43;26.45;;;11.88;;
74080;SDS011;62438;52.228;6.864;2022-11-18T07:55:44;25.00;;;11.20;;
74080;SDS011;62438;52.228;6.864;2022-11-18T07:57:44;23.02;;;11.07;;
74080;SDS011;62438;52.228;6.864;2022-11-18T07:59:45;23.55;;;11.48;;
74080;SDS011;62438;52.228;6.864;2022-11-18T08:01:45;25.25;;;11.32;;
74080;SDS011;62438;52.228;6.864;2022-11-18T08:03:45;25.83;;;11.60;;
74080;SDS011;62438;52.228;6.864;2022-11-18T08:05:46;25.17;;;11.93;;
74080;SDS011;62438;52.228;6.864;2022-11-18T08:07:47;21.13;;;10.93;;
74080;SDS011;62438;52.228;6.864;2022-11-18T08:09:47;21.48;;;11.18;;
74080;SDS011;62438;52.228;6.864;2022-11-18T08:11:47;26.33;;;11.57;;
74080;SDS011;62438;52.228;6.864;2022-11-18T08:13:48;27.27;;;12.32;;
74080;SDS011;62438;52.228;6.864;2022-11-18T08:15:50;23.10;;;11.32;;
74080;SDS011;62438;52.228;6.864;2022-11-18T08:17:51;24.05;;;11.63;;
74080;SDS011;62438;52.228;6.864;2022-11-18T08:19:52;24.13;;;11.65;;
74080;SDS011;62438;52.228;6.864;2022-11-18T08:21:52;21.90;;;10.88;;
74080;SDS011;62438;52.228;6.864;2022-11-18T08:23:53;24.35;;;11.18;;
74080;SDS011;62438;52.228;6.864;2022-11-18T08:26:03;21.85;;;11.30;;
74080;SDS011;62438;52.228;6.864;2022-11-18T08:28:08;22.33;;;11.35;;
74080;SDS011;62438;52.228;6.864;2022-11-18T08:30:09;22.63;;;10.93;;
74080;SDS011;62438;52.228;6.864;2022-11-18T08:32:10;22.58;;;11.57;;
74080;SDS011;62438;52.228;6.864;2022-11-18T08:34:10;21.38;;;11.35;;
74080;SDS011;62438;52.228;6.864;2022-11-18T08:36:13;21.80;;;11.90;;
74080;SDS011;62438;52.228;6.864;2022-11-18T08:38:15;23.95;;;11.43;;
74080;SDS011;62438;52.228;6.864;2022-11-18T08:40:16;24.55;;;12.23;;
74080;SDS011;62438;52.228;6.864;2022-11-18T08:42:16;22.75;;;11.18;;
74080;SDS011;62438;52.228;6.864;2022-11-18T08:44:21;21.30;;;11.15;;
74080;SDS011;62438;52.228;6.864;2022-11-18T08:46:21;22.77;;;11.80;;
74080;SDS011;62438;52.228;6.864;2022-11-18T08:48:22;20.90;;;10.73;;
74080;SDS011;62438;52.228;6.864;2022-11-18T08:50:22;22.58;;;10.90;;
74080;SDS011;62438;52.228;6.864;2022-11-18T08:52:22;20.83;;;10.23;;
74080;SDS011;62438;52.228;6.864;2022-11-18T08:54:23;21.42;;;11.40;;
74080;SDS011;62438;52.228;6.864;2022-11-18T08:56:23;23.80;;;12.32;;
74080;SDS011;62438;52.228;6.864;2022-11-18T08:58:24;20.73;;;10.82;;
74080;SDS011;62438;52.228;6.864;2022-11-18T09:00:25;21.10;;;11.00;;
74080;SDS011;62438;52.228;6.864;2022-11-18T09:02:26;20.20;;;9.90;;
74080;SDS011;62438;52.228;6.864;2022-11-18T09:04:26;21.90;;;10.95;;
74080;SDS011;62438;52.228;6.864;2022-11-18T09:06:27;23.38;;;10.80;;
74080;SDS011;62438;52.228;6.864;2022-11-18T09:08:27;22.17;;;11.00;;
74080;SDS011;62438;52.228;6.864;2022-11-18T09:10:28;24.05;;;10.40;;
74080;SDS011;62438;52.228;6.864;2022-11-18T09:12:29;21.20;;;10.95;;
74080;SDS011;62438;52.228;6.864;2022-11-18T09:14:29;19.65;;;10.68;;
74080;SDS011;62438;52.228;6.864;2022-11-18T09:16:30;19.88;;;10.38;;
74080;SDS011;62438;52.228;6.864;2022-11-18T09:18:31;21.90;;;11.43;;
74080;SDS011;62438;52.228;6.864;2022-11-18T09:20:32;27.15;;;10.88;;
74080;SDS011;62438;52.228;6.864;2022-11-18T09:22:34;23.55;;;11.98;;
74080;SDS011;62438;52.228;6.864;2022-11-18T09:24:35;26.77;;;12.35;;
74080;SDS011;62438;52.228;6.864;2022-11-18T09:26:37;26.30;;;12.82;;
74080;SDS011;62438;52.228;6.864;2022-11-18T09:28:37;29.63;;;14.30;;
74080;SDS011;62438;52.228;6.864;2022-11-18T09:30:38;30.27;;;13.40;;
74080;SDS011;62438;52.228;6.864;2022-11-18T09:32:38;24.90;;;11.73;;
74080;SDS011;62438;52.228;6.864;2022-11-18T09:34:39;23.58;;;12.05;;
74080;SDS011;62438;52.228;6.864;2022-11-18T09:36:39;29.02;;;12.52;;
74080;SDS011;62438;52.228;6.864;2022-11-18T09:38:39;23.58;;;12.23;;
74080;SDS011;62438;52.228;6.864;2022-11-18T09:40:43;22.63;;;11.05;;
74080;SDS011;62438;52.228;6.864;2022-11-18T09:45:22;23.52;;;11.63;;
74080;SDS011;62438;52.228;6.864;2022-11-18T09:47:28;21.27;;;10.57;;
74080;SDS011;62438;52.228;6.864;2022-11-18T09:49:34;21.08;;;11.07;;
74080;SDS011;62438;52.228;6.864;2022-11-18T09:51:43;21.27;;;10.50;;
74080;SDS011;62438;52.228;6.864;2022-11-18T09:53:46;27.73;;;11.05;;
74080;SDS011;62438;52.228;6.864;2022-11-18T09:55:46;21.17;;;10.43;;
74080;SDS011;62438;52.228;6.864;2022-11-18T09:57:53;19.67;;;10.57;;
74080;SDS011;62438;52.228;6.864;2022-11-18T09:59:57;19.45;;;9.68;;
74080;SDS011;62438;52.228;6.864;2022-11-18T10:04:13;20.13;;;10.68;;
74080;SDS011;62438;52.228;6.864;2022-11-18T10:08:27;19.65;;;10.38;;
74080;SDS011;62438;52.228;6.864;2022-11-18T10:10:36;20.60;;;9.60;;
74080;SDS011;62438;52.228;6.864;2022-11-18T10:12:46;20.30;;;11.02;;
74080;SDS011;62438;52.228;6.864;2022-11-18T10:19:33;19.67;;;10.35;;
74080;SDS011;62438;52.228;6.864;2022-11-18T10:23:54;21.60;;;10.95;;
74080;SDS011;62438;52.228;6.864;2022-11-18T10:26:02;20.05;;;10.80;;
74080;SDS011;62438;52.228;6.864;2022-11-18T10:30:35;21.13;;;10.00;;
74080;SDS011;62438;52.228;6.864;2022-11-18T10:32:35;19.98;;;10.90;;
74080;SDS011;62438;52.228;6.864;2022-11-18T10:35:49;19.60;;;10.35;;
74080;SDS011;62438;52.228;6.864;2022-11-18T10:37:42;19.20;;;10.38;;
74080;SDS011;62438;52.228;6.864;2022-11-18T10:39:53;19.80;;;11.15;;
74080;SDS011;62438;52.228;6.864;2022-11-18T10:41:57;18.23;;;9.77;;
74080;SDS011;62438;52.228;6.864;2022-11-18T10:44:02;18.73;;;9.23;;
74080;SDS011;62438;52.228;6.864;2022-11-18T10:48:24;19.55;;;10.27;;
74080;SDS011;62438;52.228;6.864;2022-11-18T10:50:35;18.40;;;9.23;;
74080;SDS011;62438;52.228;6.864;2022-11-18T10:52:50;18.63;;;10.32;;
74080;SDS011;62438;52.228;6.864;2022-11-18T10:59:29;19.85;;;10.20;;
74080;SDS011;62438;52.228;6.864;2022-11-18T11:01:33;21.92;;;10.55;;
74080;SDS011;62438;52.228;6.864;2022-11-18T11:03:34;20.13;;;9.30;;
74080;SDS011;62438;52.228;6.864;2022-11-18T11:05:37;20.42;;;10.60;;
74080;SDS011;62438;52.228;6.864;2022-11-18T11:07:37;19.75;;;10.43;;
74080;SDS011;62438;52.228;6.864;2022-11-18T11:09:37;19.63;;;10.15;;
74080;SDS011;62438;52.228;6.864;2022-11-18T11:11:42;20.15;;;10.75;;
74080;SDS011;62438;52.228;6.864;2022-11-18T11:13:57;18.25;;;9.90;;
74080;SDS011;62438;52.228;6.864;2022-11-18T11:16:02;20.27;;;11.23;;
74080;SDS011;62438;52.228;6.864;2022-11-18T11:18:05;20.60;;;9.82;;
74080;SDS011;62438;52.228;6.864;2022-11-18T11:20:30;18.83;;;10.05;;
74080;SDS011;62438;52.228;6.864;2022-11-18T11:22:30;19.17;;;9.70;;
74080;SDS011;62438;52.228;6.864;2022-11-18T11:24:34;19.95;;;11.38;;
74080;SDS011;62438;52.228;6.864;2022-11-18T11:26:55;22.63;;;11.15;;
74080;SDS011;62438;52.228;6.864;2022-11-18T11:39:06;21.33;;;11.10;;
74080;SDS011;62438;52.228;6.864;2022-11-18T11:41:21;18.50;;;10.07;;
74080;SDS011;62438;52.228;6.864;2022-11-18T11:45:57;20.20;;;10.70;;
74080;SDS011;62438;52.228;6.864;2022-11-18T11:53:05;21.40;;;11.27;;
74080;SDS011;62438;52.228;6.864;2022-11-18T12:04:19;22.98;;;11.18;;
74080;SDS011;62438;52.228;6.864;2022-11-18T12:06:29;19.58;;;10.90;;
74080;SDS011;62438;52.228;6.864;2022-11-18T12:08:29;22.45;;;11.18;;
74080;SDS011;62438;52.228;6.864;2022-11-18T12:12:57;23.90;;;12.93;;
74080;SDS011;62438;52.228;6.864;2022-11-18T12:17:52;22.77;;;10.07;;
74080;SDS011;62438;52.228;6.864;2022-11-18T12:19:57;21.00;;;10.02;;
74080;SDS011;62438;52.228;6.864;2022-11-18T12:21:58;22.50;;;11.20;;
74080;SDS011;62438;52.228;6.864;2022-11-18T12:30:36;25.70;;;11.45;;
74080;SDS011;62438;52.228;6.864;2022-11-18T12:32:36;23.45;;;11.68;;
74080;SDS011;62438;52.228;6.864;2022-11-18T12:34:45;21.40;;;11.20;;
74080;SDS011;62438;52.228;6.864;2022-11-18T12:46:00;23.50;;;10.68;;
74080;SDS011;62438;52.228;6.864;2022-11-18T12:48:00;22.25;;;10.40;;
74080;SDS011;62438;52.228;6.864;2022-11-18T12:52:03;22.48;;;9.75;;
74080;SDS011;62438;52.228;6.864;2022-11-18T12:56:27;21.38;;;10.75;;
74080;SDS011;62438;52.228;6.864;2022-11-18T12:58:33;21.38;;;10.30;;
74080;SDS011;62438;52.228;6.864;2022-11-18T13:00:34;21.73;;;10.25;;
74080;SDS011;62438;52.228;6.864;2022-11-18T13:02:52;22.48;;;9.68;;
74080;SDS011;62438;52.228;6.864;2022-11-18T13:05:04;22.48;;;10.10;;
74080;SDS011;62438;52.228;6.864;2022-11-18T13:07:18;23.08;;;11.25;;
74080;SDS011;62438;52.228;6.864;2022-11-18T13:09:37;23.90;;;10.80;;
74080;SDS011;62438;52.228;6.864;2022-11-18T13:11:45;24.27;;;11.38;;
74080;SDS011;62438;52.228;6.864;2022-11-18T13:13:51;22.20;;;10.20;;
74080;SDS011;62438;52.228;6.864;2022-11-18T13:18:48;25.65;;;11.38;;
74080;SDS011;62438;52.228;6.864;2022-11-18T13:20:54;28.15;;;10.35;;
74080;SDS011;62438;52.228;6.864;2022-11-18T13:22:57;21.92;;;10.38;;
74080;SDS011;62438;52.228;6.864;2022-11-18T13:25:22;25.00;;;10.93;;
74080;SDS011;62438;52.228;6.864;2022-11-18T13:27:35;25.75;;;10.38;;
74080;SDS011;62438;52.228;6.864;2022-11-18T13:29:44;27.70;;;12.38;;
74080;SDS011;62438;52.228;6.864;2022-11-18T13:32:06;21.60;;;10.23;;
74080;SDS011;62438;52.228;6.864;2022-11-18T13:34:27;25.00;;;11.10;;
74080;SDS011;62438;52.228;6.864;2022-11-18T13:36:29;26.00;;;10.13;;
74080;SDS011;62438;52.228;6.864;2022-11-18T13:38:31;21.05;;;10.55;;
74080;SDS011;62438;52.228;6.864;2022-11-18T13:41:05;21.70;;;10.27;;
74080;SDS011;62438;52.228;6.864;2022-11-18T13:43:08;21.92;;;8.77;;
74080;SDS011;62438;52.228;6.864;2022-11-18T13:45:11;22.33;;;9.10;;
74080;SDS011;62438;52.228;6.864;2022-11-18T13:49:48;21.70;;;8.95;;
74080;SDS011;62438;52.228;6.864;2022-11-18T13:52:07;22.02;;;9.15;;
74080;SDS011;62438;52.228;6.864;2022-11-18T13:54:19;21.05;;;10.23;;
74080;SDS011;62438;52.228;6.864;2022-11-18T13:56:26;22.70;;;9.70;;
74080;SDS011;62438;52.228;6.864;2022-11-18T13:58:31;24.63;;;10.50;;